FranceFixed distance
Luchon Aneto Trail - L'Ultra Lat
8–9 Jul2023
Distance
85km
Finishers
211196 men15 women
Winning time
9:57:48h
Median pace
5.23km/h
Pace distribution
211 finishers · 4.33–8.53 km/h · mean 5.33
Every finisher ran the same 85 km course, so these paces are directly comparable.
Histogram of finisher pace. 211 finishers ranged from 4.33 to 8.53 kilometres per hour, with a mean of 5.33 and a median of 5.23. The busiest band is 4.5 to 5.0 kilometres per hour, with 68 finishers.
Results
Ranks 151–200 of 211
| Rank | Runner | Time | Pace | Cat. | Placing |
|---|---|---|---|---|---|
| 150 | Lous Galoupayres | 17:34:29h | 4.84 | M45 | 141st M · 23rd M45 |
| 152 | Elan D'Armagnac | 17:34:31h | 4.84 | M45 | 143rd M · 24th M45 |
| 153 | Bouliac Sports Plaisirs | 17:37:54h | 4.82 | M35 | 144th M · 34th M35 |
| 154 | Team Xuriak | 17:37:55h | 4.82 | W35 | 10th F · 3rd W35 |
| 155 | Team Yoda | 17:38:00h | 4.82 | M23 | 145th M · 40th M23 |
| 156 | 17:38:59h | 4.82 | M40 | 146th M · 29th M40 | |
| 157 | Team Ouins Ouins | 17:41:37h | 4.80 | M23 | 147th M · 41st M23 |
| 158 | Club Alpin Francais To... | 17:43:19h | 4.80 | M45 | 148th M · 25th M45 |
| 159 | Charo Piraterie | 17:49:18h | 4.77 | MU23 | 149th M · 1st MU23 |
| 160 | 17:50:27h | 4.76 | M35 | 150th M · 35th M35 | |
| 161 | 17:52:56h | 4.75 | M23 | 151st M · 42nd M23 | |
| 162 | 17:55:59h | 4.74 | M35 | 152nd M · 36th M35 | |
| 163 | Team Trail 17 | 17:57:00h | 4.74 | M23 | 153rd M · 43rd M23 |
| 163 | 17:57:00h | 4.74 | M23 | 153rd M · 43rd M23 | |
| 165 | AB Trail | 17:58:25h | 4.73 | M50 | 155th M · 13th M50 |
| 166 | 18:02:43h | 4.71 | M40 | 156th M · 30th M40 | |
| 167 | Spiridon16 | 18:05:19h | 4.70 | M23 | 157th M · 45th M23 |
| 168 | Beruges Sport Nature | 18:06:04h | 4.70 | M50 | 158th M · 14th M50 |
| 168 | BSN / Ultramical 86 | 18:06:04h | 4.70 | M50 | 158th M · 14th M50 |
| 170 | 18:09:53h | 4.68 | M40 | 160th M · 31st M40 | |
| 171 | Raid Lande Aventure | 18:09:54h | 4.68 | M40 | 161st M · 32nd M40 |
| 172 | LE Blanc Athle | 18:11:11h | 4.67 | M35 | 162nd M · 37th M35 |
| 173 | 18:18:07h | 4.64 | M55 | 163rd M · 6th M55 | |
| 174 | Defi Outdoor la Rochelle | 18:19:46h | 4.64 | W45 | 11th F · 2nd W45 |
| 174 | 18:19:46h | 4.64 | W40 | 11th F · 5th W40 | |
| 176 | 18:25:31h | 4.61 | M23 | 164th M · 46th M23 | |
| 177 | 18:25:32h | 4.61 | M35 | 165th M · 38th M35 | |
| 178 | Golfs Trotteur | 18:25:42h | 4.61 | M45 | 166th M · 26th M45 |
| 178 | Asptt Agen | 18:25:42h | 4.61 | M45 | 166th M · 26th M45 |
| 180 | 18:27:10h | 4.61 | M40 | 168th M · 33rd M40 | |
| 181 | les Mille Pattes de Meze | 18:28:52h | 4.60 | M55 | 169th M · 7th M55 |
| 182 | Wild and Free | 18:33:58h | 4.58 | M35 | 170th M · 39th M35 |
| 183 | Akuma | 18:35:38h | 4.57 | M50 | 171st M · 16th M50 |
| 184 | 18:38:28h | 4.56 | M40 | 172nd M · 34th M40 | |
| 185 | 18:39:33h | 4.55 | M23 | 173rd M · 47th M23 | |
| 186 | Team Bouconne/ Aurigna... | 18:42:10h | 4.54 | M40 | 174th M · 35th M40 |
| 187 | Ascl Running | 18:47:35h | 4.52 | M50 | 175th M · 17th M50 |
| 188 | Ascl Running | 18:47:37h | 4.52 | M40 | 176th M · 36th M40 |
| 189 | Ascl Running | 18:47:38h | 4.52 | M55 | 177th M · 8th M55 |
| 190 | Ascl Running | 18:47:40h | 4.52 | M55 | 178th M · 9th M55 |
| 190 | Ascl Running | 18:47:40h | 4.52 | M35 | 178th M · 40th M35 |
| 192 | Sdis 31 | 18:48:17h | 4.52 | M45 | 180th M · 28th M45 |
| 193 | 18:48:18h | 4.52 | M23 | 181st M · 48th M23 | |
| 194 | les Foulees du Bassin ... | 18:49:39h | 4.51 | M45 | 182nd M · 29th M45 |
| 195 | Association Sportive d... | 18:49:58h | 4.51 | M23 | 183rd M · 49th M23 |
| 196 | Ainarak | 18:51:06h | 4.51 | M50 | 184th M · 18th M50 |
| 196 | 18:51:06h | 4.51 | M45 | 184th M · 30th M45 | |
| 198 | JAB | 18:54:12h | 4.50 | W40 | 13th F · 6th W40 |
| 198 | JAB Borderes Course A ... | 18:54:12h | 4.50 | M45 | 186th M · 31st M45 |
| 200 | RC Valderies Xiii | 18:55:07h | 4.49 | M50 | 187th M · 19th M50 |
- 150Lous Galoupayres141st M · 23rd M45Time17:34:29hPace4.84Cat.M45
- 152Elan D'Armagnac143rd M · 24th M45Time17:34:31hPace4.84Cat.M45
- 153Bouliac Sports Plaisirs144th M · 34th M35Time17:37:54hPace4.82Cat.M35
- 154Team Xuriak10th F · 3rd W35Time17:37:55hPace4.82Cat.W35
- 155Team Yoda145th M · 40th M23Time17:38:00hPace4.82Cat.M23
- 156146th M · 29th M40Time17:38:59hPace4.82Cat.M40
- 157Team Ouins Ouins147th M · 41st M23Time17:41:37hPace4.80Cat.M23
- 158Club Alpin Francais To...148th M · 25th M45Time17:43:19hPace4.80Cat.M45
- 159Charo Piraterie149th M · 1st MU23Time17:49:18hPace4.77Cat.MU23
- 160150th M · 35th M35Time17:50:27hPace4.76Cat.M35
- 161151st M · 42nd M23Time17:52:56hPace4.75Cat.M23
- 162152nd M · 36th M35Time17:55:59hPace4.74Cat.M35
- 163Team Trail 17153rd M · 43rd M23Time17:57:00hPace4.74Cat.M23
- 163153rd M · 43rd M23Time17:57:00hPace4.74Cat.M23
- 165AB Trail155th M · 13th M50Time17:58:25hPace4.73Cat.M50
- 166156th M · 30th M40Time18:02:43hPace4.71Cat.M40
- 167Spiridon16157th M · 45th M23Time18:05:19hPace4.70Cat.M23
- 168Beruges Sport Nature158th M · 14th M50Time18:06:04hPace4.70Cat.M50
- 168BSN / Ultramical 86158th M · 14th M50Time18:06:04hPace4.70Cat.M50
- 170160th M · 31st M40Time18:09:53hPace4.68Cat.M40
- 171Raid Lande Aventure161st M · 32nd M40Time18:09:54hPace4.68Cat.M40
- 172LE Blanc Athle162nd M · 37th M35Time18:11:11hPace4.67Cat.M35
- 173163rd M · 6th M55Time18:18:07hPace4.64Cat.M55
- 174Defi Outdoor la Rochelle11th F · 2nd W45Time18:19:46hPace4.64Cat.W45
- 17411th F · 5th W40Time18:19:46hPace4.64Cat.W40
- 176164th M · 46th M23Time18:25:31hPace4.61Cat.M23
- 177165th M · 38th M35Time18:25:32hPace4.61Cat.M35
- 178Golfs Trotteur166th M · 26th M45Time18:25:42hPace4.61Cat.M45
- 178Asptt Agen166th M · 26th M45Time18:25:42hPace4.61Cat.M45
- 180168th M · 33rd M40Time18:27:10hPace4.61Cat.M40
- 181les Mille Pattes de Meze169th M · 7th M55Time18:28:52hPace4.60Cat.M55
- 182Wild and Free170th M · 39th M35Time18:33:58hPace4.58Cat.M35
- 183Akuma171st M · 16th M50Time18:35:38hPace4.57Cat.M50
- 184172nd M · 34th M40Time18:38:28hPace4.56Cat.M40
- 185173rd M · 47th M23Time18:39:33hPace4.55Cat.M23
- 186Team Bouconne/ Aurigna...174th M · 35th M40Time18:42:10hPace4.54Cat.M40
- 187Ascl Running175th M · 17th M50Time18:47:35hPace4.52Cat.M50
- 188Ascl Running176th M · 36th M40Time18:47:37hPace4.52Cat.M40
- 189Ascl Running177th M · 8th M55Time18:47:38hPace4.52Cat.M55
- 190Ascl Running178th M · 9th M55Time18:47:40hPace4.52Cat.M55
- 190Ascl Running178th M · 40th M35Time18:47:40hPace4.52Cat.M35
- 192Sdis 31180th M · 28th M45Time18:48:17hPace4.52Cat.M45
- 193181st M · 48th M23Time18:48:18hPace4.52Cat.M23
- 194les Foulees du Bassin ...182nd M · 29th M45Time18:49:39hPace4.51Cat.M45
- 195Association Sportive d...183rd M · 49th M23Time18:49:58hPace4.51Cat.M23
- 196Ainarak184th M · 18th M50Time18:51:06hPace4.51Cat.M50
- 196184th M · 30th M45Time18:51:06hPace4.51Cat.M45
- 198JAB13th F · 6th W40Time18:54:12hPace4.50Cat.W40
- 198JAB Borderes Course A ...186th M · 31st M45Time18:54:12hPace4.50Cat.M45
- 200RC Valderies Xiii187th M · 19th M50Time18:55:07hPace4.49Cat.M50
Showing ranks 151–200 of 211